sensor_id;sensor_type;location;lat;lon;timestamp;pressure;altitude;pressure_sealevel;temperature;humidity
11440;BME280;5776;51.814;4.510;2022-11-27T00:01:20;102447.34;;;8.51;100.00
11440;BME280;5776;51.814;4.510;2022-11-27T00:03:46;102439.22;;;8.51;100.00
11440;BME280;5776;51.814;4.510;2022-11-27T00:06:15;102434.03;;;8.49;100.00
11440;BME280;5776;51.814;4.510;2022-11-27T00:08:42;102427.78;;;8.49;100.00
11440;BME280;5776;51.814;4.510;2022-11-27T00:11:14;102416.97;;;8.49;100.00
11440;BME280;5776;51.814;4.510;2022-11-27T00:13:40;102409.88;;;8.48;100.00
11440;BME280;5776;51.814;4.510;2022-11-27T00:16:07;102404.72;;;8.46;100.00
11440;BME280;5776;51.814;4.510;2022-11-27T00:18:34;102402.84;;;8.47;100.00
11440;BME280;5776;51.814;4.510;2022-11-27T00:21:13;102392.00;;;8.47;100.00
11440;BME280;5776;51.814;4.510;2022-11-27T00:23:39;102391.19;;;8.46;100.00
11440;BME280;5776;51.814;4.510;2022-11-27T00:26:06;102385.75;;;8.46;100.00
11440;BME280;5776;51.814;4.510;2022-11-27T00:28:33;102381.66;;;8.43;100.00
11440;BME280;5776;51.814;4.510;2022-11-27T00:31:04;102378.69;;;8.45;100.00
11440;BME280;5776;51.814;4.510;2022-11-27T00:33:30;102380.84;;;8.43;100.00
11440;BME280;5776;51.814;4.510;2022-11-27T00:36:03;102378.34;;;8.41;100.00
11440;BME280;5776;51.814;4.510;2022-11-27T00:38:30;102381.06;;;8.41;100.00
11440;BME280;5776;51.814;4.510;2022-11-27T00:40:58;102372.94;;;8.41;100.00
11440;BME280;5776;51.814;4.510;2022-11-27T00:43:24;102375.63;;;8.41;100.00
11440;BME280;5776;51.814;4.510;2022-11-27T00:45:50;102372.44;;;8.44;100.00
11440;BME280;5776;51.814;4.510;2022-11-27T00:48:16;102364.59;;;8.43;100.00
11440;BME280;5776;51.814;4.510;2022-11-27T00:50:42;102368.34;;;8.42;100.00
11440;BME280;5776;51.814;4.510;2022-11-27T00:53:08;102367.50;;;8.41;100.00
11440;BME280;5776;51.814;4.510;2022-11-27T00:55:34;102368.59;;;8.40;100.00
11440;BME280;5776;51.814;4.510;2022-11-27T00:58:00;102370.44;;;8.40;100.00
11440;BME280;5776;51.814;4.510;2022-11-27T01:00:26;102361.50;;;8.39;100.00
11440;BME280;5776;51.814;4.510;2022-11-27T01:02:52;102364.44;;;8.38;100.00
11440;BME280;5776;51.814;4.510;2022-11-27T01:05:18;102365.25;;;8.38;100.00
11440;BME280;5776;51.814;4.510;2022-11-27T01:07:44;102361.72;;;8.38;100.00
11440;BME280;5776;51.814;4.510;2022-11-27T01:10:10;102353.59;;;8.38;100.00
11440;BME280;5776;51.814;4.510;2022-11-27T01:12:36;102352.75;;;8.37;100.00
11440;BME280;5776;51.814;4.510;2022-11-27T01:15:02;102353.84;;;8.36;100.00
11440;BME280;5776;51.814;4.510;2022-11-27T01:17:28;102344.31;;;8.34;100.00
11440;BME280;5776;51.814;4.510;2022-11-27T01:19:54;102335.09;;;8.35;100.00
11440;BME280;5776;51.814;4.510;2022-11-27T01:22:20;102331.59;;;8.34;100.00
11440;BME280;5776;51.814;4.510;2022-11-27T01:24:46;102335.97;;;8.35;100.00
11440;BME280;5776;51.814;4.510;2022-11-27T01:27:12;102331.09;;;8.37;100.00
11440;BME280;5776;51.814;4.510;2022-11-27T01:29:39;102318.88;;;8.35;100.00
11440;BME280;5776;51.814;4.510;2022-11-27T01:32:05;102312.63;;;8.34;100.00
11440;BME280;5776;51.814;4.510;2022-11-27T01:34:31;102302.06;;;8.33;100.00
11440;BME280;5776;51.814;4.510;2022-11-27T01:36:57;102311.81;;;8.34;100.00
11440;BME280;5776;51.814;4.510;2022-11-27T01:39:23;102299.34;;;8.33;100.00
11440;BME280;5776;51.814;4.510;2022-11-27T01:41:49;102304.75;;;8.33;100.00
11440;BME280;5776;51.814;4.510;2022-11-27T01:46:55;102295.78;;;8.32;100.00
11440;BME280;5776;51.814;4.510;2022-11-27T01:49:33;102282.84;;;8.34;100.00
11440;BME280;5776;51.814;4.510;2022-11-27T01:57:08;102285.81;;;8.33;100.00
11440;BME280;5776;51.814;4.510;2022-11-27T01:59:35;102283.09;;;8.33;100.00
11440;BME280;5776;51.814;4.510;2022-11-27T02:02:01;102276.84;;;8.32;100.00
11440;BME280;5776;51.814;4.510;2022-11-27T02:04:29;102287.94;;;8.31;100.00
11440;BME280;5776;51.814;4.510;2022-11-27T02:06:57;102270.63;;;8.32;100.00
11440;BME280;5776;51.814;4.510;2022-11-27T02:09:25;102263.31;;;8.32;100.00
11440;BME280;5776;51.814;4.510;2022-11-27T02:14:49;102267.09;;;8.31;100.00
11440;BME280;5776;51.814;4.510;2022-11-27T02:17:28;102275.00;;;8.33;100.00
11440;BME280;5776;51.814;4.510;2022-11-27T02:20:17;102276.28;;;8.30;100.00
11440;BME280;5776;51.814;4.510;2022-11-27T02:29:07;102277.34;;;8.29;100.00
11440;BME280;5776;51.814;4.510;2022-11-27T02:32:07;102267.09;;;8.31;100.00
11440;BME280;5776;51.814;4.510;2022-11-27T02:42:36;102270.03;;;8.30;100.00
11440;BME280;5776;51.814;4.510;2022-11-27T02:45:09;102264.63;;;8.30;100.00
11440;BME280;5776;51.814;4.510;2022-11-27T02:47:38;102254.63;;;8.30;100.00
11440;BME280;5776;51.814;4.510;2022-11-27T02:50:08;102255.94;;;8.28;100.00
11440;BME280;5776;51.814;4.510;2022-11-27T02:52:36;102249.09;;;8.25;100.00
11440;BME280;5776;51.814;4.510;2022-11-27T02:55:04;102251.34;;;8.28;100.00
11440;BME280;5776;51.814;4.510;2022-11-27T02:57:33;102257.78;;;8.27;100.00
11440;BME280;5776;51.814;4.510;2022-11-27T03:00:00;102253.44;;;8.26;100.00
11440;BME280;5776;51.814;4.510;2022-11-27T03:02:33;102264.88;;;8.28;100.00
11440;BME280;5776;51.814;4.510;2022-11-27T03:05:01;102273.22;;;8.27;100.00
11440;BME280;5776;51.814;4.510;2022-11-27T03:07:39;102273.22;;;8.27;100.00
11440;BME280;5776;51.814;4.510;2022-11-27T03:10:16;102266.97;;;8.26;100.00
11440;BME280;5776;51.814;4.510;2022-11-27T03:12:46;102256.75;;;8.28;100.00
11440;BME280;5776;51.814;4.510;2022-11-27T03:15:13;102254.25;;;8.27;100.00
11440;BME280;5776;51.814;4.510;2022-11-27T03:18:00;102253.22;;;8.28;100.00
11440;BME280;5776;51.814;4.510;2022-11-27T03:20:36;102254.53;;;8.25;100.00
11440;BME280;5776;51.814;4.510;2022-11-27T03:23:03;102259.69;;;8.27;100.00
11440;BME280;5776;51.814;4.510;2022-11-27T03:25:29;102251.56;;;8.27;100.00
11440;BME280;5776;51.814;4.510;2022-11-27T03:27:57;102250.50;;;8.28;100.00
11440;BME280;5776;51.814;4.510;2022-11-27T03:30:25;102247.81;;;8.28;100.00
11440;BME280;5776;51.814;4.510;2022-11-27T03:32:51;102247.81;;;8.28;100.00
11440;BME280;5776;51.814;4.510;2022-11-27T03:35:21;102248.03;;;8.26;100.00
11440;BME280;5776;51.814;4.510;2022-11-27T03:37:48;102246.97;;;8.27;100.00
11440;BME280;5776;51.814;4.510;2022-11-27T03:40:15;102248.03;;;8.26;100.00
11440;BME280;5776;51.814;4.510;2022-11-27T03:43:03;102253.44;;;8.26;100.00
11440;BME280;5776;51.814;4.510;2022-11-27T03:48:27;102251.81;;;8.25;100.00
11440;BME280;5776;51.814;4.510;2022-11-27T03:56:37;102240.41;;;8.23;100.00
11440;BME280;5776;51.814;4.510;2022-11-27T03:59:12;102242.84;;;8.25;100.00
11440;BME280;5776;51.814;4.510;2022-11-27T04:01:40;102252.84;;;8.24;100.00
11440;BME280;5776;51.814;4.510;2022-11-27T04:04:06;102255.56;;;8.24;100.00
11440;BME280;5776;51.814;4.510;2022-11-27T04:06:32;102253.69;;;8.25;100.00
11440;BME280;5776;51.814;4.510;2022-11-27T04:08:58;102250.16;;;8.24;100.00
11440;BME280;5776;51.814;4.510;2022-11-27T04:11:24;102236.84;;;8.22;100.00
11440;BME280;5776;51.814;4.510;2022-11-27T04:13:50;102234.13;;;8.22;100.00
11440;BME280;5776;51.814;4.510;2022-11-27T04:16:19;102228.72;;;8.22;100.00
11440;BME280;5776;51.814;4.510;2022-11-27T04:18:45;102228.28;;;8.26;100.00
11440;BME280;5776;51.814;4.510;2022-11-27T04:21:11;102235.22;;;8.21;100.00
11440;BME280;5776;51.814;4.510;2022-11-27T04:23:38;102225.47;;;8.20;100.00
11440;BME280;5776;51.814;4.510;2022-11-27T04:26:04;102223.31;;;8.22;100.00
11440;BME280;5776;51.814;4.510;2022-11-27T04:28:30;102232.50;;;8.21;100.00
11440;BME280;5776;51.814;4.510;2022-11-27T04:30:56;102233.31;;;8.22;100.00
11440;BME280;5776;51.814;4.510;2022-11-27T04:33:23;102221.44;;;8.23;100.00
11440;BME280;5776;51.814;4.510;2022-11-27T04:35:50;102215.44;;;8.21;100.00
11440;BME280;5776;51.814;4.510;2022-11-27T04:38:17;102214.63;;;8.20;100.00
11440;BME280;5776;51.814;4.510;2022-11-27T04:40:42;102210.03;;;8.21;100.00
11440;BME280;5776;51.814;4.510;2022-11-27T04:43:08;102208.97;;;8.22;100.00
11440;BME280;5776;51.814;4.510;2022-11-27T04:45:34;102200.63;;;8.23;100.00
11440;BME280;5776;51.814;4.510;2022-11-27T04:48:02;102193.78;;;8.21;100.00
11440;BME280;5776;51.814;4.510;2022-11-27T04:50:28;102194.63;;;8.21;100.00
11440;BME280;5776;51.814;4.510;2022-11-27T04:52:54;102196.50;;;8.21;100.00
11440;BME280;5776;51.814;4.510;2022-11-27T04:55:20;102192.72;;;8.22;100.00
11440;BME280;5776;51.814;4.510;2022-11-27T04:57:46;102180.25;;;8.21;100.00
11440;BME280;5776;51.814;4.510;2022-11-27T05:00:12;102190.28;;;8.20;100.00
11440;BME280;5776;51.814;4.510;2022-11-27T05:02:38;102182.38;;;8.19;100.00
11440;BME280;5776;51.814;4.510;2022-11-27T05:05:05;102185.41;;;8.22;100.00
11440;BME280;5776;51.814;4.510;2022-11-27T05:07:31;102178.59;;;8.20;100.00
11440;BME280;5776;51.814;4.510;2022-11-27T05:09:56;102173.78;;;8.22;100.00
11440;BME280;5776;51.814;4.510;2022-11-27T05:12:22;102173.56;;;8.23;100.00
11440;BME280;5776;51.814;4.510;2022-11-27T05:14:48;102178.16;;;8.23;100.00
11440;BME280;5776;51.814;4.510;2022-11-27T05:17:14;102182.16;;;8.20;100.00
11440;BME280;5776;51.814;4.510;2022-11-27T05:19:40;102184.88;;;8.20;100.00
11440;BME280;5776;51.814;4.510;2022-11-27T05:22:06;102176.38;;;8.17;100.00
11440;BME280;5776;51.814;4.510;2022-11-27T05:24:32;102172.63;;;8.18;100.00
11440;BME280;5776;51.814;4.510;2022-11-27T05:26:58;102167.22;;;8.18;100.00
11440;BME280;5776;51.814;4.510;2022-11-27T05:29:25;102166.16;;;8.19;100.00
11440;BME280;5776;51.814;4.510;2022-11-27T05:31:51;102161.22;;;8.16;100.00
11440;BME280;5776;51.814;4.510;2022-11-27T05:34:17;102159.56;;;8.15;100.00
11440;BME280;5776;51.814;4.510;2022-11-27T05:36:43;102158.03;;;8.19;100.00
11440;BME280;5776;51.814;4.510;2022-11-27T05:39:10;102154.50;;;8.18;100.00
11440;BME280;5776;51.814;4.510;2022-11-27T05:41:38;102151.53;;;8.20;100.00
11440;BME280;5776;51.814;4.510;2022-11-27T05:44:05;102144.97;;;8.16;100.00
11440;BME280;5776;51.814;4.510;2022-11-27T05:46:31;102141.19;;;8.17;100.00
11440;BME280;5776;51.814;4.510;2022-11-27T05:48:57;102143.09;;;8.16;100.00
11440;BME280;5776;51.814;4.510;2022-11-27T05:51:23;102132.03;;;8.18;100.00
11440;BME280;5776;51.814;4.510;2022-11-27T05:53:50;102135.06;;;8.21;100.00
11440;BME280;5776;51.814;4.510;2022-11-27T05:56:17;102128.25;;;8.19;100.00
11440;BME280;5776;51.814;4.510;2022-11-27T05:58:45;102120.13;;;8.19;100.00
11440;BME280;5776;51.814;4.510;2022-11-27T06:01:13;102121.78;;;8.20;100.00
11440;BME280;5776;51.814;4.510;2022-11-27T06:03:40;102124.47;;;8.20;100.00
11440;BME280;5776;51.814;4.510;2022-11-27T06:06:11;102108.72;;;8.17;100.00
11440;BME280;5776;51.814;4.510;2022-11-27T06:08:39;102119.31;;;8.18;100.00
11440;BME280;5776;51.814;4.510;2022-11-27T06:11:10;102126.94;;;8.21;100.00
11440;BME280;5776;51.814;4.510;2022-11-27T06:13:36;102127.19;;;8.20;100.00
11440;BME280;5776;51.814;4.510;2022-11-27T06:16:07;102124.72;;;8.18;100.00
11440;BME280;5776;51.814;4.510;2022-11-27T06:18:34;102129.34;;;8.18;100.00
11440;BME280;5776;51.814;4.510;2022-11-27T06:21:00;102124.47;;;8.20;100.00
11440;BME280;5776;51.814;4.510;2022-11-27T06:23:26;102121.22;;;8.18;100.00
11440;BME280;5776;51.814;4.510;2022-11-27T06:25:52;102113.44;;;8.10;100.00
11440;BME280;5776;51.814;4.510;2022-11-27T06:28:18;102110.69;;;7.93;100.00
11440;BME280;5776;51.814;4.510;2022-11-27T06:30:43;102103.66;;;7.80;100.00
11440;BME280;5776;51.814;4.510;2022-11-27T06:33:09;102105.53;;;7.79;100.00
11440;BME280;5776;51.814;4.510;2022-11-27T06:35:35;102105.19;;;7.76;100.00
11440;BME280;5776;51.814;4.510;2022-11-27T06:38:01;102095.19;;;7.76;100.00
11440;BME280;5776;51.814;4.510;2022-11-27T06:40:28;102098.16;;;7.75;100.00
11440;BME280;5776;51.814;4.510;2022-11-27T06:42:53;102093.19;;;7.72;100.00
11440;BME280;5776;51.814;4.510;2022-11-27T06:45:19;102091.78;;;7.69;100.00
11440;BME280;5776;51.814;4.510;2022-11-27T06:47:45;102086.16;;;7.71;100.00
11440;BME280;5776;51.814;4.510;2022-11-27T06:50:11;102086.16;;;7.71;100.00
11440;BME280;5776;51.814;4.510;2022-11-27T06:52:37;102078.75;;;7.66;100.00
11440;BME280;5776;51.814;4.510;2022-11-27T06:55:04;102075.13;;;7.61;100.00
11440;BME280;5776;51.814;4.510;2022-11-27T06:57:30;102074.06;;;7.62;100.00
11440;BME280;5776;51.814;4.510;2022-11-27T06:59:55;102070.53;;;7.61;100.00
11440;BME280;5776;51.814;4.510;2022-11-27T07:02:21;102061.34;;;7.62;100.00
11440;BME280;5776;51.814;4.510;2022-11-27T07:04:47;102049.03;;;7.54;100.00
11440;BME280;5776;51.814;4.510;2022-11-27T07:07:13;102057.97;;;7.55;100.00
11440;BME280;5776;51.814;4.510;2022-11-27T07:09:40;102051.50;;;7.56;100.00
11440;BME280;5776;51.814;4.510;2022-11-27T07:12:06;102047.28;;;7.48;100.00
11440;BME280;5776;51.814;4.510;2022-11-27T07:14:32;102042.47;;;7.50;100.00
11440;BME280;5776;51.814;4.510;2022-11-27T07:16:58;102036.09;;;7.56;100.00
11440;BME280;5776;51.814;4.510;2022-11-27T07:19:24;102029.53;;;7.52;100.00
11440;BME280;5776;51.814;4.510;2022-11-27T07:21:50;102033.53;;;7.50;100.00
11440;BME280;5776;51.814;4.510;2022-11-27T07:24:16;102031.88;;;7.49;100.00
11440;BME280;5776;51.814;4.510;2022-11-27T07:26:42;102025.78;;;7.42;100.00
11440;BME280;5776;51.814;4.510;2022-11-27T07:29:08;102030.97;;;7.43;100.00
11440;BME280;5776;51.814;4.510;2022-11-27T07:31:33;102023.19;;;7.47;100.00
11440;BME280;5776;51.814;4.510;2022-11-27T07:33:59;102030.25;;;7.48;100.00
11440;BME280;5776;51.814;4.510;2022-11-27T07:36:30;102029.41;;;7.47;100.00
11440;BME280;5776;51.814;4.510;2022-11-27T07:38:56;102021.78;;;7.44;100.00
11440;BME280;5776;51.814;4.510;2022-11-27T07:41:22;102032.09;;;7.47;100.00
11440;BME280;5776;51.814;4.510;2022-11-27T07:43:48;102026.97;;;7.46;100.00
11440;BME280;5776;51.814;4.510;2022-11-27T07:46:20;102025.06;;;7.46;100.00
11440;BME280;5776;51.814;4.510;2022-11-27T07:48:47;102030.59;;;7.51;100.00
11440;BME280;5776;51.814;4.510;2022-11-27T07:51:16;102034.94;;;7.52;100.00
11440;BME280;5776;51.814;4.510;2022-11-27T07:53:42;102028.25;;;7.55;100.00
11440;BME280;5776;51.814;4.510;2022-11-27T07:56:11;102024.38;;;7.51;100.00
11440;BME280;5776;51.814;4.510;2022-11-27T07:58:38;102017.44;;;7.55;100.00
11440;BME280;5776;51.814;4.510;2022-11-27T08:01:09;102022.47;;;7.51;100.00
11440;BME280;5776;51.814;4.510;2022-11-27T08:03:35;102023.53;;;7.50;100.00
11440;BME280;5776;51.814;4.510;2022-11-27T08:06:02;102024.59;;;7.49;100.00
11440;BME280;5776;51.814;4.510;2022-11-27T08:08:28;102018.13;;;7.50;100.00
11440;BME280;5776;51.814;4.510;2022-11-27T08:10:54;102017.66;;;7.53;100.00
11440;BME280;5776;51.814;4.510;2022-11-27T08:13:20;102014.94;;;7.53;100.00
11440;BME280;5776;51.814;4.510;2022-11-27T08:15:46;102013.44;;;7.57;100.00
11440;BME280;5776;51.814;4.510;2022-11-27T08:18:12;102008.56;;;7.60;100.00
11440;BME280;5776;51.814;4.510;2022-11-27T08:20:38;102016.47;;;7.61;100.00
11440;BME280;5776;51.814;4.510;2022-11-27T08:23:04;102013.16;;;7.59;100.00
11440;BME280;5776;51.814;4.510;2022-11-27T08:25:30;102014.47;;;7.56;100.00
11440;BME280;5776;51.814;4.510;2022-11-27T08:27:56;102014.13;;;7.53;100.00
11440;BME280;5776;51.814;4.510;2022-11-27T08:30:23;102012.84;;;7.55;100.00
11440;BME280;5776;51.814;4.510;2022-11-27T08:32:49;102012.84;;;7.55;100.00
11440;BME280;5776;51.814;4.510;2022-11-27T08:35:15;102014.47;;;7.56;100.00
11440;BME280;5776;51.814;4.510;2022-11-27T08:37:41;102016.59;;;7.54;100.00
11440;BME280;5776;51.814;4.510;2022-11-27T08:40:07;102012.94;;;7.61;100.00
11440;BME280;5776;51.814;4.510;2022-11-27T08:42:34;102014.47;;;7.56;100.00
11440;BME280;5776;51.814;4.510;2022-11-27T08:45:00;102009.88;;;7.57;100.00
11440;BME280;5776;51.814;4.510;2022-11-27T08:47:26;102014.72;;;7.55;100.00
11440;BME280;5776;51.814;4.510;2022-11-27T08:49:52;102008.97;;;7.51;100.00
11440;BME280;5776;51.814;4.510;2022-11-27T08:52:18;102002.16;;;7.49;100.00
11440;BME280;5776;51.814;4.510;2022-11-27T08:54:45;102005.44;;;7.51;100.00
11440;BME280;5776;51.814;4.510;2022-11-27T08:57:11;102010.63;;;7.52;100.00
11440;BME280;5776;51.814;4.510;2022-11-27T08:59:37;102006.75;;;7.48;100.00
11440;BME280;5776;51.814;4.510;2022-11-27T09:02:03;102002.97;;;7.49;100.00
11440;BME280;5776;51.814;4.510;2022-11-27T09:04:28;102007.22;;;7.45;100.00
11440;BME280;5776;51.814;4.510;2022-11-27T09:06:54;102004.63;;;7.50;100.00
11440;BME280;5776;51.814;4.510;2022-11-27T09:09:20;102001.91;;;7.50;100.00
11440;BME280;5776;51.814;4.510;2022-11-27T09:11:46;102002.16;;;7.49;100.00
11440;BME280;5776;51.814;4.510;2022-11-27T09:14:13;102003.81;;;7.50;100.00
11440;BME280;5776;51.814;4.510;2022-11-27T09:16:39;102001.56;;;7.47;100.00
11440;BME280;5776;51.814;4.510;2022-11-27T09:19:04;101991.81;;;7.46;100.00
11440;BME280;5776;51.814;4.510;2022-11-27T09:21:30;101984.28;;;7.48;100.00
11440;BME280;5776;51.814;4.510;2022-11-27T09:23:58;101983.44;;;7.47;100.00
11440;BME280;5776;51.814;4.510;2022-11-27T09:26:26;101981.22;;;7.44;100.00
11440;BME280;5776;51.814;4.510;2022-11-27T09:28:53;101983.13;;;7.44;100.00
11440;BME280;5776;51.814;4.510;2022-11-27T09:31:21;101987.00;;;7.48;100.00
11440;BME280;5776;51.814;4.510;2022-11-27T09:33:47;101982.63;;;7.47;100.00
11440;BME280;5776;51.814;4.510;2022-11-27T09:36:19;101973.13;;;7.44;100.00
11440;BME280;5776;51.814;4.510;2022-11-27T09:38:46;101978.88;;;7.48;100.00
11440;BME280;5776;51.814;4.510;2022-11-27T09:41:30;101971.81;;;7.47;100.00
11440;BME280;5776;51.814;4.510;2022-11-27T09:44:03;101968.78;;;7.43;100.00
11440;BME280;5776;51.814;4.510;2022-11-27T09:46:34;101965.81;;;7.45;100.00
11440;BME280;5776;51.814;4.510;2022-11-27T09:49:05;101952.69;;;7.48;100.00
11440;BME280;5776;51.814;4.510;2022-11-27T09:51:34;101955.97;;;7.50;100.00
11440;BME280;5776;51.814;4.510;2022-11-27T09:54:25;101955.97;;;7.50;100.00
11440;BME280;5776;51.814;4.510;2022-11-27T09:56:54;101957.25;;;7.48;100.00
11440;BME280;5776;51.814;4.510;2022-11-27T09:59:22;101949.88;;;7.43;100.00
11440;BME280;5776;51.814;4.510;2022-11-27T10:01:51;101951.00;;;7.47;100.00
11440;BME280;5776;51.814;4.510;2022-11-27T10:04:18;101949.38;;;7.46;100.00
11440;BME280;5776;51.814;4.510;2022-11-27T10:07:07;101943.97;;;7.46;100.00
11440;BME280;5776;51.814;4.510;2022-11-27T10:13:16;101943.38;;;7.44;100.00
11440;BME280;5776;51.814;4.510;2022-11-27T10:18:33;101943.66;;;7.43;100.00
11440;BME280;5776;51.814;4.510;2022-11-27T10:21:08;101941.16;;;7.41;100.00
11440;BME280;5776;51.814;4.510;2022-11-27T10:26:23;101925.69;;;7.65;100.00
11440;BME280;5776;51.814;4.510;2022-11-27T10:31:54;101916.56;;;7.83;100.00
11440;BME280;5776;51.814;4.510;2022-11-27T10:34:36;101921.25;;;7.88;100.00
11440;BME280;5776;51.814;4.510;2022-11-27T10:37:17;101920.16;;;7.89;100.00
11440;BME280;5776;51.814;4.510;2022-11-27T10:40:02;101913.94;;;7.88;100.00
11440;BME280;5776;51.814;4.510;2022-11-27T10:42:35;101919.94;;;7.90;100.00
11440;BME280;5776;51.814;4.510;2022-11-27T10:45:09;101920.50;;;7.92;100.00
11440;BME280;5776;51.814;4.510;2022-11-27T10:47:41;101906.97;;;7.92;100.00
11440;BME280;5776;51.814;4.510;2022-11-27T10:50:13;101903.22;;;7.93;100.00
11440;BME280;5776;51.814;4.510;2022-11-27T10:52:51;101909.94;;;7.91;100.00
11440;BME280;5776;51.814;4.510;2022-11-27T10:55:33;101908.72;;;7.70;100.00
11440;BME280;5776;51.814;4.510;2022-11-27T11:00:59;101881.28;;;7.61;100.00
11440;BME280;5776;51.814;4.510;2022-11-27T11:03:25;101882.66;;;7.64;100.00
11440;BME280;5776;51.814;4.510;2022-11-27T11:06:00;101881.50;;;7.60;100.00
11440;BME280;5776;51.814;4.510;2022-11-27T11:08:27;101873.75;;;7.63;100.00
11440;BME280;5776;51.814;4.510;2022-11-27T11:11:00;101869.63;;;7.61;100.00
11440;BME280;5776;51.814;4.510;2022-11-27T11:13:29;101874.31;;;7.65;100.00
11440;BME280;5776;51.814;4.510;2022-11-27T11:18:25;101863.16;;;7.62;100.00
11440;BME280;5776;51.814;4.510;2022-11-27T11:20:57;101862.13;;;7.63;100.00
11440;BME280;5776;51.814;4.510;2022-11-27T11:23:29;101859.63;;;7.61;100.00
11440;BME280;5776;51.814;4.510;2022-11-27T11:25:59;101846.13;;;7.61;100.00
11440;BME280;5776;51.814;4.510;2022-11-27T11:28:27;101848.59;;;7.63;100.00
11440;BME280;5776;51.814;4.510;2022-11-27T11:30:56;101845.63;;;7.64;100.00
11440;BME280;5776;51.814;4.510;2022-11-27T11:33:24;101840.72;;;7.61;100.00
11440;BME280;5776;51.814;4.510;2022-11-27T11:35:53;101835.31;;;7.61;100.00
11440;BME280;5776;51.814;4.510;2022-11-27T11:38:27;101826.97;;;7.63;100.00
11440;BME280;5776;51.814;4.510;2022-11-27T11:40:58;101822.09;;;7.65;100.00
11440;BME280;5776;51.814;4.510;2022-11-27T11:43:27;101814.00;;;7.65;100.00
11440;BME280;5776;51.814;4.510;2022-11-27T11:46:03;101798.63;;;7.65;100.00
11440;BME280;5776;51.814;4.510;2022-11-27T11:48:31;101790.75;;;7.64;100.00
11440;BME280;5776;51.814;4.510;2022-11-27T11:51:11;101783.44;;;7.64;100.00
11440;BME280;5776;51.814;4.510;2022-11-27T11:53:42;101773.44;;;7.65;100.00
11440;BME280;5776;51.814;4.510;2022-11-27T11:56:32;101779.69;;;7.65;100.00
11440;BME280;5776;51.814;4.510;2022-11-27T12:02:19;101778.94;;;7.70;100.00
11440;BME280;5776;51.814;4.510;2022-11-27T12:05:10;101774.59;;;7.69;100.00
11440;BME280;5776;51.814;4.510;2022-11-27T12:28:05;101754.13;;;7.73;100.00
11440;BME280;5776;51.814;4.510;2022-11-27T12:42:01;101728.72;;;7.74;100.00
11440;BME280;5776;51.814;4.510;2022-11-27T12:44:36;101732.00;;;7.76;100.00
11440;BME280;5776;51.814;4.510;2022-11-27T12:47:11;101733.63;;;7.77;100.00
11440;BME280;5776;51.814;4.510;2022-11-27T12:49:46;101724.97;;;7.75;100.00
11440;BME280;5776;51.814;4.510;2022-11-27T12:52:18;101716.56;;;7.76;100.00
11440;BME280;5776;51.814;4.510;2022-11-27T12:57:36;101711.44;;;7.75;100.00
11440;BME280;5776;51.814;4.510;2022-11-27T13:00:12;101712.81;;;7.77;100.00
11440;BME280;5776;51.814;4.510;2022-11-27T13:03:08;101710.13;;;7.77;100.00
11440;BME280;5776;51.814;4.510;2022-11-27T13:05:50;101703.94;;;7.82;100.00
11440;BME280;5776;51.814;4.510;2022-11-27T13:08:44;101704.78;;;7.83;100.00
11440;BME280;5776;51.814;4.510;2022-11-27T13:11:13;101705.53;;;7.78;100.00
11440;BME280;5776;51.814;4.510;2022-11-27T13:13:51;101707.16;;;7.79;100.00
11440;BME280;5776;51.814;4.510;2022-11-27T13:16:20;101691.19;;;7.77;100.00
11440;BME280;5776;51.814;4.510;2022-11-27T13:18:53;101697.41;;;7.78;100.00
11440;BME280;5776;51.814;4.510;2022-11-27T13:21:26;101683.06;;;7.77;100.00
11440;BME280;5776;51.814;4.510;2022-11-27T13:23:54;101682.81;;;7.79;100.00
11440;BME280;5776;51.814;4.510;2022-11-27T13:26:30;101675.78;;;7.78;100.00
11440;BME280;5776;51.814;4.510;2022-11-27T13:29:05;101682.00;;;7.78;100.00
11440;BME280;5776;51.814;4.510;2022-11-27T13:31:34;101684.47;;;7.80;100.00
11440;BME280;5776;51.814;4.510;2022-11-27T13:34:05;101679.06;;;7.80;100.00
11440;BME280;5776;51.814;4.510;2022-11-27T13:36:41;101676.09;;;7.82;100.00
11440;BME280;5776;51.814;4.510;2022-11-27T13:39:56;101671.50;;;7.82;100.00
11440;BME280;5776;51.814;4.510;2022-11-27T13:42:19;101660.66;;;7.82;100.00
11440;BME280;5776;51.814;4.510;2022-11-27T13:44:58;101646.34;;;7.82;100.00
11440;BME280;5776;51.814;4.510;2022-11-27T13:47:27;101653.34;;;7.77;100.00
11440;BME280;5776;51.814;4.510;2022-11-27T13:50:10;101639.88;;;7.83;100.00
11440;BME280;5776;51.814;4.510;2022-11-27T13:52:49;101642.00;;;7.81;100.00
11440;BME280;5776;51.814;4.510;2022-11-27T13:55:37;101634.13;;;7.79;100.00
11440;BME280;5776;51.814;4.510;2022-11-27T13:58:04;101634.63;;;7.76;100.00
11440;BME280;5776;51.814;4.510;2022-11-27T14:00:40;101637.34;;;7.76;100.00
11440;BME280;5776;51.814;4.510;2022-11-27T14:03:20;101619.50;;;7.75;100.00
11440;BME280;5776;51.814;4.510;2022-11-27T14:05:47;101617.91;;;7.79;100.00
11440;BME280;5776;51.814;4.510;2022-11-27T14:10:51;101617.34;;;7.77;100.00
11440;BME280;5776;51.814;4.510;2022-11-27T14:13:19;101604.66;;;7.77;100.00
11440;BME280;5776;51.814;4.510;2022-11-27T14:15:56;101595.63;;;7.72;100.00
11440;BME280;5776;51.814;4.510;2022-11-27T14:18:27;101601.03;;;7.72;100.00
11440;BME280;5776;51.814;4.510;2022-11-27T14:21:02;101596.13;;;7.69;100.00
11440;BME280;5776;51.814;4.510;2022-11-27T14:23:47;101586.94;;;7.70;100.00
11440;BME280;5776;51.814;4.510;2022-11-27T14:28:42;101590.81;;;7.74;100.00
11440;BME280;5776;51.814;4.510;2022-11-27T14:31:33;101580.72;;;7.69;100.00
11440;BME280;5776;51.814;4.510;2022-11-27T14:34:00;101585.31;;;7.69;100.00
11440;BME280;5776;51.814;4.510;2022-11-27T14:36:32;101588.03;;;7.69;100.00
11440;BME280;5776;51.814;4.510;2022-11-27T14:39:02;101590.22;;;7.72;100.00
11440;BME280;5776;51.814;4.510;2022-11-27T14:41:29;101579.41;;;7.72;100.00
11440;BME280;5776;51.814;4.510;2022-11-27T14:44:12;101576.47;;;7.73;100.00
11440;BME280;5776;51.814;4.510;2022-11-27T14:46:38;101568.13;;;7.75;100.00